sensor_id;sensor_type;location;lat;lon;timestamp;P1;durP1;ratioP1;P2;durP2;ratioP2
81457;SDS011;70882;52.500;5.500;2023-06-24T00:00:38;19.45;;;10.93;;
81457;SDS011;70882;52.500;5.500;2023-06-24T00:03:04;19.02;;;10.43;;
81457;SDS011;70882;52.500;5.500;2023-06-24T00:05:32;21.17;;;11.30;;
81457;SDS011;70882;52.500;5.500;2023-06-24T00:07:58;19.65;;;10.70;;
81457;SDS011;70882;52.500;5.500;2023-06-24T00:10:27;19.38;;;10.65;;
81457;SDS011;70882;52.500;5.500;2023-06-24T00:12:52;21.13;;;11.63;;
81457;SDS011;70882;52.500;5.500;2023-06-24T00:15:23;21.15;;;11.10;;
81457;SDS011;70882;52.500;5.500;2023-06-24T00:17:52;21.85;;;11.52;;
81457;SDS011;70882;52.500;5.500;2023-06-24T00:20:19;22.40;;;11.30;;
81457;SDS011;70882;52.500;5.500;2023-06-24T00:22:45;18.08;;;10.38;;
81457;SDS011;70882;52.500;5.500;2023-06-24T00:25:15;17.90;;;9.95;;
81457;SDS011;70882;52.500;5.500;2023-06-24T00:27:42;18.55;;;9.70;;
81457;SDS011;70882;52.500;5.500;2023-06-24T00:30:09;17.50;;;10.20;;
81457;SDS011;70882;52.500;5.500;2023-06-24T00:32:35;18.83;;;8.80;;
81457;SDS011;70882;52.500;5.500;2023-06-24T00:35:00;15.73;;;8.93;;
81457;SDS011;70882;52.500;5.500;2023-06-24T00:37:25;17.90;;;8.52;;
81457;SDS011;70882;52.500;5.500;2023-06-24T00:39:51;14.73;;;8.50;;
81457;SDS011;70882;52.500;5.500;2023-06-24T00:42:16;10.23;;;6.82;;
81457;SDS011;70882;52.500;5.500;2023-06-24T00:44:43;12.90;;;7.22;;
81457;SDS011;70882;52.500;5.500;2023-06-24T00:47:13;14.93;;;6.75;;
81457;SDS011;70882;52.500;5.500;2023-06-24T00:49:50;11.95;;;7.25;;
81457;SDS011;70882;52.500;5.500;2023-06-24T00:52:23;12.90;;;6.63;;
81457;SDS011;70882;52.500;5.500;2023-06-24T00:54:50;13.23;;;7.00;;
81457;SDS011;70882;52.500;5.500;2023-06-24T00:57:17;13.02;;;6.43;;
81457;SDS011;70882;52.500;5.500;2023-06-24T00:59:42;9.85;;;6.20;;
81457;SDS011;70882;52.500;5.500;2023-06-24T01:02:09;11.98;;;6.85;;
81457;SDS011;70882;52.500;5.500;2023-06-24T01:04:35;10.32;;;6.60;;
81457;SDS011;70882;52.500;5.500;2023-06-24T01:07:02;10.00;;;6.07;;
81457;SDS011;70882;52.500;5.500;2023-06-24T01:09:32;9.20;;;5.82;;
81457;SDS011;70882;52.500;5.500;2023-06-24T01:12:01;13.00;;;6.88;;
81457;SDS011;70882;52.500;5.500;2023-06-24T01:14:28;13.80;;;6.70;;
81457;SDS011;70882;52.500;5.500;2023-06-24T01:33:01;10.85;;;6.82;;
81457;SDS011;70882;52.500;5.500;2023-06-24T01:35:30;10.45;;;7.13;;
81457;SDS011;70882;52.500;5.500;2023-06-24T01:37:59;11.80;;;7.22;;
81457;SDS011;70882;52.500;5.500;2023-06-24T01:40:30;11.07;;;6.75;;
81457;SDS011;70882;52.500;5.500;2023-06-24T01:42:57;11.50;;;6.63;;
81457;SDS011;70882;52.500;5.500;2023-06-24T01:45:25;13.05;;;7.68;;
81457;SDS011;70882;52.500;5.500;2023-06-24T01:48:02;12.40;;;7.38;;
81457;SDS011;70882;52.500;5.500;2023-06-24T01:50:40;11.68;;;7.80;;
81457;SDS011;70882;52.500;5.500;2023-06-24T01:53:09;10.60;;;7.28;;
81457;SDS011;70882;52.500;5.500;2023-06-24T01:55:36;15.57;;;7.43;;
81457;SDS011;70882;52.500;5.500;2023-06-24T01:58:02;14.10;;;8.70;;
81457;SDS011;70882;52.500;5.500;2023-06-24T02:00:30;12.75;;;7.82;;
81457;SDS011;70882;52.500;5.500;2023-06-24T02:02:56;14.10;;;7.82;;
81457;SDS011;70882;52.500;5.500;2023-06-24T02:05:23;13.68;;;8.27;;
81457;SDS011;70882;52.500;5.500;2023-06-24T02:07:50;14.57;;;8.38;;
81457;SDS011;70882;52.500;5.500;2023-06-24T02:10:17;18.38;;;8.15;;
81457;SDS011;70882;52.500;5.500;2023-06-24T02:12:44;15.35;;;8.02;;
81457;SDS011;70882;52.500;5.500;2023-06-24T02:15:10;13.30;;;7.97;;
81457;SDS011;70882;52.500;5.500;2023-06-24T02:17:35;16.33;;;9.00;;
81457;SDS011;70882;52.500;5.500;2023-06-24T02:20:05;17.00;;;8.85;;
81457;SDS011;70882;52.500;5.500;2023-06-24T02:22:35;13.55;;;8.27;;
81457;SDS011;70882;52.500;5.500;2023-06-24T02:25:02;16.15;;;8.85;;
81457;SDS011;70882;52.500;5.500;2023-06-24T02:27:31;15.73;;;8.52;;
81457;SDS011;70882;52.500;5.500;2023-06-24T02:29:57;14.98;;;8.50;;
81457;SDS011;70882;52.500;5.500;2023-06-24T02:32:23;14.80;;;9.02;;
81457;SDS011;70882;52.500;5.500;2023-06-24T02:34:49;15.05;;;8.88;;
81457;SDS011;70882;52.500;5.500;2023-06-24T02:37:16;15.02;;;9.10;;
81457;SDS011;70882;52.500;5.500;2023-06-24T02:39:42;20.52;;;9.63;;
81457;SDS011;70882;52.500;5.500;2023-06-24T02:42:11;21.58;;;9.82;;
81457;SDS011;70882;52.500;5.500;2023-06-24T02:44:38;17.83;;;9.75;;
81457;SDS011;70882;52.500;5.500;2023-06-24T02:47:06;17.45;;;9.18;;
81457;SDS011;70882;52.500;5.500;2023-06-24T02:49:34;15.35;;;9.43;;
81457;SDS011;70882;52.500;5.500;2023-06-24T02:52:00;17.33;;;10.15;;
81457;SDS011;70882;52.500;5.500;2023-06-24T02:54:25;17.85;;;9.70;;
81457;SDS011;70882;52.500;5.500;2023-06-24T02:56:51;19.13;;;9.68;;
81457;SDS011;70882;52.500;5.500;2023-06-24T02:59:23;18.30;;;10.00;;
81457;SDS011;70882;52.500;5.500;2023-06-24T03:01:49;18.15;;;9.63;;
81457;SDS011;70882;52.500;5.500;2023-06-24T03:04:17;18.08;;;9.85;;
81457;SDS011;70882;52.500;5.500;2023-06-24T03:06:44;19.35;;;10.10;;
81457;SDS011;70882;52.500;5.500;2023-06-24T03:09:10;20.20;;;11.25;;
81457;SDS011;70882;52.500;5.500;2023-06-24T03:11:43;17.27;;;10.07;;
81457;SDS011;70882;52.500;5.500;2023-06-24T03:14:09;18.77;;;10.57;;
81457;SDS011;70882;52.500;5.500;2023-06-24T03:16:35;18.35;;;10.23;;
81457;SDS011;70882;52.500;5.500;2023-06-24T03:19:04;17.50;;;10.05;;
81457;SDS011;70882;52.500;5.500;2023-06-24T03:21:30;17.77;;;10.65;;
81457;SDS011;70882;52.500;5.500;2023-06-24T03:23:57;18.40;;;10.35;;
81457;SDS011;70882;52.500;5.500;2023-06-24T03:26:34;18.70;;;10.60;;
81457;SDS011;70882;52.500;5.500;2023-06-24T03:29:00;17.30;;;10.05;;
81457;SDS011;70882;52.500;5.500;2023-06-24T03:31:26;16.88;;;10.63;;
81457;SDS011;70882;52.500;5.500;2023-06-24T03:33:51;18.95;;;10.90;;
81457;SDS011;70882;52.500;5.500;2023-06-24T03:36:17;17.83;;;10.93;;
81457;SDS011;70882;52.500;5.500;2023-06-24T03:38:42;21.08;;;10.77;;
81457;SDS011;70882;52.500;5.500;2023-06-24T03:41:08;16.45;;;10.35;;
81457;SDS011;70882;52.500;5.500;2023-06-24T03:43:33;18.40;;;9.85;;
81457;SDS011;70882;52.500;5.500;2023-06-24T03:45:58;18.15;;;10.05;;
81457;SDS011;70882;52.500;5.500;2023-06-24T03:48:26;17.40;;;9.82;;
81457;SDS011;70882;52.500;5.500;2023-06-24T03:50:51;18.63;;;10.77;;
81457;SDS011;70882;52.500;5.500;2023-06-24T03:53:20;17.63;;;10.02;;
81457;SDS011;70882;52.500;5.500;2023-06-24T03:55:47;18.02;;;9.50;;
81457;SDS011;70882;52.500;5.500;2023-06-24T03:58:13;15.50;;;8.73;;
81457;SDS011;70882;52.500;5.500;2023-06-24T04:00:39;14.43;;;8.10;;
81457;SDS011;70882;52.500;5.500;2023-06-24T04:03:06;12.43;;;8.30;;
81457;SDS011;70882;52.500;5.500;2023-06-24T04:05:36;14.60;;;8.30;;
81457;SDS011;70882;52.500;5.500;2023-06-24T04:08:01;15.05;;;7.60;;
81457;SDS011;70882;52.500;5.500;2023-06-24T04:10:30;14.10;;;7.82;;
81457;SDS011;70882;52.500;5.500;2023-06-24T04:12:56;14.77;;;8.45;;
81457;SDS011;70882;52.500;5.500;2023-06-24T04:15:21;14.18;;;7.40;;
81457;SDS011;70882;52.500;5.500;2023-06-24T04:17:48;14.38;;;7.20;;
81457;SDS011;70882;52.500;5.500;2023-06-24T04:20:18;15.07;;;7.13;;
81457;SDS011;70882;52.500;5.500;2023-06-24T04:22:43;13.68;;;7.60;;
81457;SDS011;70882;52.500;5.500;2023-06-24T04:25:10;12.07;;;6.97;;
81457;SDS011;70882;52.500;5.500;2023-06-24T04:27:36;11.52;;;7.15;;
81457;SDS011;70882;52.500;5.500;2023-06-24T04:30:03;13.25;;;6.97;;
81457;SDS011;70882;52.500;5.500;2023-06-24T04:32:29;10.35;;;7.00;;
81457;SDS011;70882;52.500;5.500;2023-06-24T04:34:55;10.02;;;5.95;;
81457;SDS011;70882;52.500;5.500;2023-06-24T04:37:20;13.30;;;7.03;;
81457;SDS011;70882;52.500;5.500;2023-06-24T04:39:48;13.15;;;5.85;;
81457;SDS011;70882;52.500;5.500;2023-06-24T04:42:19;10.35;;;6.47;;
81457;SDS011;70882;52.500;5.500;2023-06-24T04:44:48;13.18;;;6.50;;
81457;SDS011;70882;52.500;5.500;2023-06-24T04:47:16;9.73;;;5.53;;
81457;SDS011;70882;52.500;5.500;2023-06-24T04:49:43;8.77;;;5.38;;
81457;SDS011;70882;52.500;5.500;2023-06-24T04:52:18;9.48;;;5.40;;
81457;SDS011;70882;52.500;5.500;2023-06-24T04:54:51;9.50;;;5.45;;
81457;SDS011;70882;52.500;5.500;2023-06-24T04:57:33;8.75;;;5.80;;
81457;SDS011;70882;52.500;5.500;2023-06-24T05:02:50;10.60;;;5.85;;
81457;SDS011;70882;52.500;5.500;2023-06-24T05:08:50;9.32;;;5.43;;
81457;SDS011;70882;52.500;5.500;2023-06-24T05:14:12;8.05;;;5.00;;
81457;SDS011;70882;52.500;5.500;2023-06-24T05:16:40;9.65;;;5.07;;
81457;SDS011;70882;52.500;5.500;2023-06-24T05:19:11;6.63;;;4.88;;
81457;SDS011;70882;52.500;5.500;2023-06-24T05:21:39;8.13;;;4.57;;
81457;SDS011;70882;52.500;5.500;2023-06-24T05:24:08;10.30;;;5.13;;
81457;SDS011;70882;52.500;5.500;2023-06-24T05:26:35;7.88;;;4.57;;
81457;SDS011;70882;52.500;5.500;2023-06-24T05:29:03;8.18;;;5.18;;
81457;SDS011;70882;52.500;5.500;2023-06-24T05:31:36;7.65;;;4.45;;
81457;SDS011;70882;52.500;5.500;2023-06-24T05:34:31;8.88;;;5.00;;
81457;SDS011;70882;52.500;5.500;2023-06-24T05:40:16;7.40;;;4.35;;
81457;SDS011;70882;52.500;5.500;2023-06-24T05:43:23;7.30;;;3.90;;
81457;SDS011;70882;52.500;5.500;2023-06-24T05:46:04;7.97;;;4.20;;
81457;SDS011;70882;52.500;5.500;2023-06-24T05:48:59;6.40;;;3.72;;
81457;SDS011;70882;52.500;5.500;2023-06-24T05:51:39;10.32;;;3.80;;
81457;SDS011;70882;52.500;5.500;2023-06-24T05:54:24;6.75;;;3.60;;
81457;SDS011;70882;52.500;5.500;2023-06-24T05:56:57;8.38;;;4.13;;
81457;SDS011;70882;52.500;5.500;2023-06-24T06:05:58;7.15;;;3.90;;
81457;SDS011;70882;52.500;5.500;2023-06-24T06:08:33;6.85;;;3.47;;
81457;SDS011;70882;52.500;5.500;2023-06-24T06:11:08;5.60;;;3.40;;
81457;SDS011;70882;52.500;5.500;2023-06-24T06:13:34;5.18;;;3.53;;
81457;SDS011;70882;52.500;5.500;2023-06-24T06:16:02;6.60;;;3.78;;
81457;SDS011;70882;52.500;5.500;2023-06-24T06:18:46;5.68;;;3.33;;
81457;SDS011;70882;52.500;5.500;2023-06-24T06:28:34;4.68;;;3.17;;
81457;SDS011;70882;52.500;5.500;2023-06-24T06:31:29;4.22;;;2.83;;
81457;SDS011;70882;52.500;5.500;2023-06-24T06:36:59;5.88;;;3.08;;
81457;SDS011;70882;52.500;5.500;2023-06-24T06:39:30;6.28;;;3.72;;
81457;SDS011;70882;52.500;5.500;2023-06-24T06:42:05;4.82;;;3.20;;
81457;SDS011;70882;52.500;5.500;2023-06-24T06:44:35;5.57;;;2.60;;
81457;SDS011;70882;52.500;5.500;2023-06-24T06:47:05;5.90;;;3.65;;
81457;SDS011;70882;52.500;5.500;2023-06-24T06:49:34;5.57;;;3.30;;
81457;SDS011;70882;52.500;5.500;2023-06-24T06:52:02;4.47;;;2.90;;
81457;SDS011;70882;52.500;5.500;2023-06-24T06:55:01;6.28;;;2.95;;
81457;SDS011;70882;52.500;5.500;2023-06-24T06:57:30;5.28;;;2.80;;
81457;SDS011;70882;52.500;5.500;2023-06-24T07:00:11;4.82;;;3.20;;
81457;SDS011;70882;52.500;5.500;2023-06-24T07:02:51;7.25;;;2.65;;
81457;SDS011;70882;52.500;5.500;2023-06-24T07:05:17;3.75;;;2.90;;
81457;SDS011;70882;52.500;5.500;2023-06-24T07:07:49;6.85;;;3.95;;
81457;SDS011;70882;52.500;5.500;2023-06-24T07:10:26;4.95;;;3.28;;
81457;SDS011;70882;52.500;5.500;2023-06-24T07:12:52;5.50;;;3.55;;
81457;SDS011;70882;52.500;5.500;2023-06-24T07:15:30;6.72;;;4.07;;
81457;SDS011;70882;52.500;5.500;2023-06-24T07:17:56;7.72;;;3.28;;
81457;SDS011;70882;52.500;5.500;2023-06-24T07:20:21;5.80;;;3.20;;
81457;SDS011;70882;52.500;5.500;2023-06-24T07:22:47;5.15;;;3.63;;
81457;SDS011;70882;52.500;5.500;2023-06-24T07:25:16;6.63;;;3.00;;
81457;SDS011;70882;52.500;5.500;2023-06-24T07:27:46;9.65;;;4.53;;
81457;SDS011;70882;52.500;5.500;2023-06-24T07:30:22;9.00;;;3.95;;
81457;SDS011;70882;52.500;5.500;2023-06-24T07:32:57;5.75;;;4.40;;
81457;SDS011;70882;52.500;5.500;2023-06-24T07:35:25;9.60;;;5.07;;
81457;SDS011;70882;52.500;5.500;2023-06-24T07:38:01;8.50;;;4.82;;
81457;SDS011;70882;52.500;5.500;2023-06-24T07:40:29;7.05;;;4.78;;
81457;SDS011;70882;52.500;5.500;2023-06-24T07:42:54;8.93;;;5.43;;
81457;SDS011;70882;52.500;5.500;2023-06-24T07:45:20;7.63;;;4.40;;
81457;SDS011;70882;52.500;5.500;2023-06-24T07:47:51;8.20;;;4.18;;
81457;SDS011;70882;52.500;5.500;2023-06-24T07:50:24;9.98;;;5.20;;
81457;SDS011;70882;52.500;5.500;2023-06-24T07:56:13;13.10;;;5.35;;
81457;SDS011;70882;52.500;5.500;2023-06-24T07:58:41;9.32;;;5.10;;
81457;SDS011;70882;52.500;5.500;2023-06-24T08:01:22;8.30;;;5.13;;
81457;SDS011;70882;52.500;5.500;2023-06-24T08:04:50;7.35;;;4.13;;
81457;SDS011;70882;52.500;5.500;2023-06-24T08:08:00;8.48;;;5.10;;
81457;SDS011;70882;52.500;5.500;2023-06-24T08:10:43;8.77;;;5.75;;
81457;SDS011;70882;52.500;5.500;2023-06-24T08:14:02;8.07;;;4.95;;
81457;SDS011;70882;52.500;5.500;2023-06-24T08:19:36;6.78;;;4.55;;
81457;SDS011;70882;52.500;5.500;2023-06-24T08:22:45;8.82;;;4.32;;
81457;SDS011;70882;52.500;5.500;2023-06-24T08:46:17;7.13;;;3.97;;
81457;SDS011;70882;52.500;5.500;2023-06-24T08:53:37;6.07;;;4.35;;
81457;SDS011;70882;52.500;5.500;2023-06-24T08:56:53;8.27;;;4.35;;
81457;SDS011;70882;52.500;5.500;2023-06-24T09:09:47;5.30;;;3.42;;
81457;SDS011;70882;52.500;5.500;2023-06-24T09:35:54;8.45;;;4.60;;
81457;SDS011;70882;52.500;5.500;2023-06-24T09:38:41;11.23;;;4.47;;
81457;SDS011;70882;52.500;5.500;2023-06-24T09:41:20;6.20;;;4.18;;
81457;SDS011;70882;52.500;5.500;2023-06-24T09:44:15;7.20;;;4.32;;
81457;SDS011;70882;52.500;5.500;2023-06-24T09:47:34;6.88;;;4.55;;
81457;SDS011;70882;52.500;5.500;2023-06-24T09:51:10;10.10;;;4.70;;
81457;SDS011;70882;52.500;5.500;2023-06-24T09:53:49;8.88;;;4.57;;
81457;SDS011;70882;52.500;5.500;2023-06-24T09:56:43;7.22;;;5.03;;
81457;SDS011;70882;52.500;5.500;2023-06-24T09:59:20;7.70;;;4.30;;
81457;SDS011;70882;52.500;5.500;2023-06-24T10:01:54;9.05;;;4.60;;
81457;SDS011;70882;52.500;5.500;2023-06-24T10:04:30;7.38;;;4.72;;
81457;SDS011;70882;52.500;5.500;2023-06-24T10:07:16;6.45;;;3.92;;
81457;SDS011;70882;52.500;5.500;2023-06-24T10:10:11;7.65;;;4.40;;
81457;SDS011;70882;52.500;5.500;2023-06-24T10:12:45;9.10;;;5.03;;
81457;SDS011;70882;52.500;5.500;2023-06-24T10:15:32;6.03;;;4.38;;
81457;SDS011;70882;52.500;5.500;2023-06-24T10:18:41;8.98;;;4.22;;
81457;SDS011;70882;52.500;5.500;2023-06-24T10:21:12;9.88;;;4.50;;
81457;SDS011;70882;52.500;5.500;2023-06-24T10:30:21;8.57;;;4.30;;
81457;SDS011;70882;52.500;5.500;2023-06-24T10:33:01;6.97;;;3.97;;
81457;SDS011;70882;52.500;5.500;2023-06-24T10:35:27;7.43;;;4.88;;
81457;SDS011;70882;52.500;5.500;2023-06-24T10:37:55;8.88;;;4.68;;
81457;SDS011;70882;52.500;5.500;2023-06-24T10:43:50;9.80;;;4.50;;
81457;SDS011;70882;52.500;5.500;2023-06-24T10:46:16;7.38;;;4.38;;
81457;SDS011;70882;52.500;5.500;2023-06-24T10:52:43;6.82;;;3.50;;
81457;SDS011;70882;52.500;5.500;2023-06-24T10:58:12;5.45;;;3.33;;
81457;SDS011;70882;52.500;5.500;2023-06-24T11:00:41;4.70;;;3.10;;
81457;SDS011;70882;52.500;5.500;2023-06-24T11:03:12;6.95;;;4.05;;
81457;SDS011;70882;52.500;5.500;2023-06-24T11:05:48;8.35;;;4.28;;
81457;SDS011;70882;52.500;5.500;2023-06-24T11:08:14;7.70;;;4.45;;
81457;SDS011;70882;52.500;5.500;2023-06-24T11:13:37;10.48;;;5.38;;
81457;SDS011;70882;52.500;5.500;2023-06-24T11:16:22;9.48;;;4.57;;
81457;SDS011;70882;52.500;5.500;2023-06-24T11:22:32;8.90;;;4.55;;
81457;SDS011;70882;52.500;5.500;2023-06-24T11:28:47;8.02;;;4.60;;
81457;SDS011;70882;52.500;5.500;2023-06-24T11:32:14;6.30;;;4.13;;
81457;SDS011;70882;52.500;5.500;2023-06-24T11:38:30;7.05;;;3.92;;
81457;SDS011;70882;52.500;5.500;2023-06-24T11:44:34;7.43;;;5.25;;
81457;SDS011;70882;52.500;5.500;2023-06-24T11:58:42;10.98;;;4.78;;
81457;SDS011;70882;52.500;5.500;2023-06-24T12:04:27;6.82;;;4.07;;
81457;SDS011;70882;52.500;5.500;2023-06-24T12:10:19;6.25;;;3.78;;
81457;SDS011;70882;52.500;5.500;2023-06-24T12:13:32;6.85;;;3.97;;
81457;SDS011;70882;52.500;5.500;2023-06-24T12:16:09;7.05;;;4.32;;
81457;SDS011;70882;52.500;5.500;2023-06-24T12:19:00;9.45;;;4.82;;
81457;SDS011;70882;52.500;5.500;2023-06-24T12:28:28;6.95;;;4.38;;
81457;SDS011;70882;52.500;5.500;2023-06-24T12:47:56;12.98;;;7.15;;
81457;SDS011;70882;52.500;5.500;2023-06-24T12:50:22;12.18;;;6.05;;
81457;SDS011;70882;52.500;5.500;2023-06-24T12:52:47;11.50;;;5.32;;
81457;SDS011;70882;52.500;5.500;2023-06-24T12:55:12;12.30;;;7.05;;
81457;SDS011;70882;52.500;5.500;2023-06-24T12:57:38;12.27;;;5.47;;
81457;SDS011;70882;52.500;5.500;2023-06-24T13:00:06;10.63;;;5.78;;
81457;SDS011;70882;52.500;5.500;2023-06-24T13:02:33;13.35;;;6.50;;
81457;SDS011;70882;52.500;5.500;2023-06-24T13:04:58;12.35;;;5.95;;
81457;SDS011;70882;52.500;5.500;2023-06-24T13:07:24;11.55;;;7.32;;
81457;SDS011;70882;52.500;5.500;2023-06-24T13:09:49;13.65;;;7.68;;
81457;SDS011;70882;52.500;5.500;2023-06-24T13:12:14;13.65;;;6.95;;
81457;SDS011;70882;52.500;5.500;2023-06-24T13:14:40;10.05;;;6.43;;
81457;SDS011;70882;52.500;5.500;2023-06-24T13:17:05;16.35;;;6.70;;
81457;SDS011;70882;52.500;5.500;2023-06-24T13:19:31;10.77;;;6.45;;
81457;SDS011;70882;52.500;5.500;2023-06-24T13:21:57;11.48;;;7.05;;
81457;SDS011;70882;52.500;5.500;2023-06-24T13:24:23;12.98;;;5.90;;
81457;SDS011;70882;52.500;5.500;2023-06-24T13:26:50;13.18;;;6.53;;
81457;SDS011;70882;52.500;5.500;2023-06-24T13:29:15;11.30;;;5.95;;
81457;SDS011;70882;52.500;5.500;2023-06-24T13:31:41;12.35;;;6.15;;
81457;SDS011;70882;52.500;5.500;2023-06-24T13:34:06;9.85;;;6.10;;
81457;SDS011;70882;52.500;5.500;2023-06-24T13:36:35;13.63;;;6.68;;
81457;SDS011;70882;52.500;5.500;2023-06-24T13:39:02;10.18;;;6.40;;
81457;SDS011;70882;52.500;5.500;2023-06-24T13:41:28;9.85;;;6.00;;
81457;SDS011;70882;52.500;5.500;2023-06-24T13:43:55;11.80;;;5.97;;
81457;SDS011;70882;52.500;5.500;2023-06-24T13:46:21;10.32;;;5.65;;
81457;SDS011;70882;52.500;5.500;2023-06-24T13:48:48;8.60;;;5.47;;
81457;SDS011;70882;52.500;5.500;2023-06-24T13:51:15;9.07;;;5.10;;
81457;SDS011;70882;52.500;5.500;2023-06-24T13:53:41;9.98;;;5.95;;
81457;SDS011;70882;52.500;5.500;2023-06-24T13:56:06;14.30;;;5.78;;
81457;SDS011;70882;52.500;5.500;2023-06-24T13:58:32;10.73;;;5.40;;
81457;SDS011;70882;52.500;5.500;2023-06-24T14:00:57;9.15;;;5.97;;
81457;SDS011;70882;52.500;5.500;2023-06-24T14:03:22;10.55;;;5.20;;
81457;SDS011;70882;52.500;5.500;2023-06-24T14:05:48;7.93;;;4.72;;
81457;SDS011;70882;52.500;5.500;2023-06-24T14:08:13;8.57;;;4.70;;
81457;SDS011;70882;52.500;5.500;2023-06-24T14:10:39;10.35;;;5.47;;
81457;SDS011;70882;52.500;5.500;2023-06-24T14:13:04;11.13;;;5.55;;
81457;SDS011;70882;52.500;5.500;2023-06-24T14:15:30;11.15;;;6.35;;
81457;SDS011;70882;52.500;5.500;2023-06-24T14:17:55;9.60;;;5.43;;
81457;SDS011;70882;52.500;5.500;2023-06-24T14:20:21;11.93;;;6.32;;
81457;SDS011;70882;52.500;5.500;2023-06-24T14:22:46;12.07;;;6.00;;
81457;SDS011;70882;52.500;5.500;2023-06-24T14:25:12;12.32;;;6.25;;
81457;SDS011;70882;52.500;5.500;2023-06-24T14:27:37;14.52;;;6.55;;
81457;SDS011;70882;52.500;5.500;2023-06-24T14:30:03;12.15;;;5.95;;
81457;SDS011;70882;52.500;5.500;2023-06-24T14:32:30;10.98;;;5.30;;
81457;SDS011;70882;52.500;5.500;2023-06-24T14:34:55;12.00;;;5.43;;
81457;SDS011;70882;52.500;5.500;2023-06-24T14:37:21;13.57;;;5.72;;
81457;SDS011;70882;52.500;5.500;2023-06-24T14:39:46;12.27;;;6.13;;
81457;SDS011;70882;52.500;5.500;2023-06-24T14:42:11;11.50;;;5.90;;
81457;SDS011;70882;52.500;5.500;2023-06-24T14:44:37;7.60;;;5.10;;
81457;SDS011;70882;52.500;5.500;2023-06-24T14:47:02;14.18;;;5.72;;
81457;SDS011;70882;52.500;5.500;2023-06-24T14:49:28;10.45;;;6.20;;
81457;SDS011;70882;52.500;5.500;2023-06-24T14:51:53;10.48;;;5.40;;
81457;SDS011;70882;52.500;5.500;2023-06-24T14:54:19;8.18;;;5.15;;
81457;SDS011;70882;52.500;5.500;2023-06-24T14:56:44;9.32;;;5.82;;
81457;SDS011;70882;52.500;5.500;2023-06-24T14:59:10;7.55;;;4.80;;
81457;SDS011;70882;52.500;5.500;2023-06-24T15:01:36;9.32;;;5.03;;
81457;SDS011;70882;52.500;5.500;2023-06-24T15:04:01;9.68;;;5.20;;
81457;SDS011;70882;52.500;5.500;2023-06-24T15:06:27;8.88;;;4.57;;
81457;SDS011;70882;52.500;5.500;2023-06-24T15:08:52;11.15;;;5.47;;
81457;SDS011;70882;52.500;5.500;2023-06-24T15:11:18;9.82;;;4.63;;
81457;SDS011;70882;52.500;5.500;2023-06-24T15:13:43;9.55;;;4.90;;
81457;SDS011;70882;52.500;5.500;2023-06-24T15:16:08;10.25;;;4.65;;
81457;SDS011;70882;52.500;5.500;2023-06-24T15:18:34;9.27;;;5.00;;
81457;SDS011;70882;52.500;5.500;2023-06-24T15:21:01;5.93;;;3.97;;
81457;SDS011;70882;52.500;5.500;2023-06-24T15:23:27;8.75;;;4.18;;
81457;SDS011;70882;52.500;5.500;2023-06-24T15:25:52;6.50;;;3.97;;
81457;SDS011;70882;52.500;5.500;2023-06-24T15:28:17;7.63;;;4.38;;
81457;SDS011;70882;52.500;5.500;2023-06-24T15:30:43;8.18;;;4.38;;
81457;SDS011;70882;52.500;5.500;2023-06-24T15:33:09;9.73;;;4.63;;
81457;SDS011;70882;52.500;5.500;2023-06-24T15:35:34;7.75;;;4.93;;
81457;SDS011;70882;52.500;5.500;2023-06-24T15:37:59;7.32;;;4.35;;
81457;SDS011;70882;52.500;5.500;2023-06-24T15:40:25;8.48;;;4.50;;
81457;SDS011;70882;52.500;5.500;2023-06-24T15:42:50;7.70;;;4.32;;
81457;SDS011;70882;52.500;5.500;2023-06-24T15:45:16;5.57;;;3.78;;
81457;SDS011;70882;52.500;5.500;2023-06-24T15:47:41;7.10;;;4.65;;
81457;SDS011;70882;52.500;5.500;2023-06-24T15:50:07;8.23;;;4.32;;
81457;SDS011;70882;52.500;5.500;2023-06-24T15:52:33;6.28;;;3.85;;
81457;SDS011;70882;52.500;5.500;2023-06-24T15:54:59;10.57;;;4.28;;
81457;SDS011;70882;52.500;5.500;2023-06-24T15:57:24;8.95;;;4.10;;
81457;SDS011;70882;52.500;5.500;2023-06-24T15:59:49;7.13;;;4.40;;
81457;SDS011;70882;52.500;5.500;2023-06-24T16:02:16;7.28;;;4.13;;
81457;SDS011;70882;52.500;5.500;2023-06-24T16:04:41;6.40;;;3.88;;
81457;SDS011;70882;52.500;5.500;2023-06-24T16:07:06;8.20;;;3.85;;
81457;SDS011;70882;52.500;5.500;2023-06-24T16:09:31;5.40;;;3.53;;
81457;SDS011;70882;52.500;5.500;2023-06-24T16:11:57;7.72;;;4.20;;
81457;SDS011;70882;52.500;5.500;2023-06-24T16:14:23;6.88;;;3.65;;
81457;SDS011;70882;52.500;5.500;2023-06-24T16:16:49;6.30;;;3.78;;
81457;SDS011;70882;52.500;5.500;2023-06-24T16:19:16;5.82;;;3.95;;
81457;SDS011;70882;52.500;5.500;2023-06-24T16:21:44;8.55;;;4.97;;
81457;SDS011;70882;52.500;5.500;2023-06-24T16:24:09;7.70;;;3.55;;
81457;SDS011;70882;52.500;5.500;2023-06-24T16:26:36;7.13;;;4.75;;
81457;SDS011;70882;52.500;5.500;2023-06-24T16:29:02;6.88;;;4.10;;
81457;SDS011;70882;52.500;5.500;2023-06-24T16:31:27;6.25;;;3.97;;
81457;SDS011;70882;52.500;5.500;2023-06-24T16:33:52;8.05;;;3.70;;
81457;SDS011;70882;52.500;5.500;2023-06-24T16:36:18;6.80;;;4.03;;
81457;SDS011;70882;52.500;5.500;2023-06-24T16:38:43;8.38;;;4.07;;
81457;SDS011;70882;52.500;5.500;2023-06-24T16:41:10;6.35;;;4.25;;
81457;SDS011;70882;52.500;5.500;2023-06-24T16:43:35;6.30;;;4.13;;
81457;SDS011;70882;52.500;5.500;2023-06-24T16:46:01;7.47;;;4.50;;
81457;SDS011;70882;52.500;5.500;2023-06-24T16:48:27;5.85;;;3.85;;
81457;SDS011;70882;52.500;5.500;2023-06-24T16:50:52;8.02;;;3.65;;
81457;SDS011;70882;52.500;5.500;2023-06-24T16:53:18;5.43;;;3.70;;
81457;SDS011;70882;52.500;5.500;2023-06-24T16:55:46;6.18;;;3.83;;
81457;SDS011;70882;52.500;5.500;2023-06-24T16:58:13;6.00;;;3.72;;
81457;SDS011;70882;52.500;5.500;2023-06-24T17:00:38;6.75;;;4.47;;
81457;SDS011;70882;52.500;5.500;2023-06-24T17:03:04;6.63;;;4.03;;
81457;SDS011;70882;52.500;5.500;2023-06-24T17:05:29;7.70;;;3.97;;
81457;SDS011;70882;52.500;5.500;2023-06-24T17:07:54;6.78;;;4.22;;
81457;SDS011;70882;52.500;5.500;2023-06-24T17:10:20;6.93;;;4.43;;
81457;SDS011;70882;52.500;5.500;2023-06-24T17:12:45;4.55;;;3.70;;
81457;SDS011;70882;52.500;5.500;2023-06-24T17:15:10;6.95;;;4.03;;
81457;SDS011;70882;52.500;5.500;2023-06-24T17:17:36;5.70;;;3.70;;
81457;SDS011;70882;52.500;5.500;2023-06-24T17:20:02;6.65;;;3.92;;
81457;SDS011;70882;52.500;5.500;2023-06-24T17:22:29;5.03;;;3.20;;
81457;SDS011;70882;52.500;5.500;2023-06-24T17:24:54;4.82;;;3.65;;
81457;SDS011;70882;52.500;5.500;2023-06-24T17:27:20;5.03;;;3.42;;
81457;SDS011;70882;52.500;5.500;2023-06-24T17:29:46;6.10;;;3.72;;
81457;SDS011;70882;52.500;5.500;2023-06-24T17:32:13;6.28;;;3.67;;
81457;SDS011;70882;52.500;5.500;2023-06-24T17:34:38;5.60;;;3.63;;
81457;SDS011;70882;52.500;5.500;2023-06-24T17:37:04;4.03;;;3.38;;
81457;SDS011;70882;52.500;5.500;2023-06-24T17:39:30;9.50;;;3.50;;
81457;SDS011;70882;52.500;5.500;2023-06-24T17:41:55;3.78;;;2.60;;
81457;SDS011;70882;52.500;5.500;2023-06-24T17:44:21;5.22;;;3.38;;
81457;SDS011;70882;52.500;5.500;2023-06-24T17:46:46;6.43;;;3.28;;
81457;SDS011;70882;52.500;5.500;2023-06-24T17:49:11;4.35;;;2.95;;
81457;SDS011;70882;52.500;5.500;2023-06-24T17:51:37;4.47;;;2.83;;
81457;SDS011;70882;52.500;5.500;2023-06-24T17:54:02;3.58;;;2.90;;
81457;SDS011;70882;52.500;5.500;2023-06-24T17:56:27;4.43;;;2.80;;
81457;SDS011;70882;52.500;5.500;2023-06-24T17:58:53;4.43;;;3.00;;
81457;SDS011;70882;52.500;5.500;2023-06-24T18:01:19;6.28;;;3.10;;
81457;SDS011;70882;52.500;5.500;2023-06-24T18:03:46;5.57;;;3.08;;
81457;SDS011;70882;52.500;5.500;2023-06-24T18:06:13;5.38;;;2.80;;